sensor_id;sensor_type;location;lat;lon;timestamp;temperature;humidity
14908;DHT22;7545;52.092;7.006;2023-09-08T00:00:47;19.30;99.90
14908;DHT22;7545;52.092;7.006;2023-09-08T00:03:13;19.30;99.90
14908;DHT22;7545;52.092;7.006;2023-09-08T00:05:39;19.30;99.90
14908;DHT22;7545;52.092;7.006;2023-09-08T00:08:04;19.20;99.90
14908;DHT22;7545;52.092;7.006;2023-09-08T00:10:30;19.20;99.90
14908;DHT22;7545;52.092;7.006;2023-09-08T00:12:55;19.20;99.90
14908;DHT22;7545;52.092;7.006;2023-09-08T00:15:21;19.20;99.90
14908;DHT22;7545;52.092;7.006;2023-09-08T00:17:47;19.20;99.90
14908;DHT22;7545;52.092;7.006;2023-09-08T00:20:13;19.10;99.90
14908;DHT22;7545;52.092;7.006;2023-09-08T00:22:39;19.10;99.90
14908;DHT22;7545;52.092;7.006;2023-09-08T00:25:05;19.10;99.90
14908;DHT22;7545;52.092;7.006;2023-09-08T00:27:31;19.10;99.90
14908;DHT22;7545;52.092;7.006;2023-09-08T00:29:58;19.00;99.90
14908;DHT22;7545;52.092;7.006;2023-09-08T00:32:23;18.90;99.90
14908;DHT22;7545;52.092;7.006;2023-09-08T00:34:49;19.00;99.90
14908;DHT22;7545;52.092;7.006;2023-09-08T00:37:14;19.00;99.90
14908;DHT22;7545;52.092;7.006;2023-09-08T00:39:40;18.90;99.90
14908;DHT22;7545;52.092;7.006;2023-09-08T00:42:06;18.90;99.90
14908;DHT22;7545;52.092;7.006;2023-09-08T00:44:32;18.90;99.90
14908;DHT22;7545;52.092;7.006;2023-09-08T00:46:58;18.80;99.90
14908;DHT22;7545;52.092;7.006;2023-09-08T00:49:24;18.80;99.90
14908;DHT22;7545;52.092;7.006;2023-09-08T00:51:50;18.80;99.90
14908;DHT22;7545;52.092;7.006;2023-09-08T00:54:16;18.70;99.90
14908;DHT22;7545;52.092;7.006;2023-09-08T00:56:43;18.80;99.90
14908;DHT22;7545;52.092;7.006;2023-09-08T00:59:09;18.70;99.90
14908;DHT22;7545;52.092;7.006;2023-09-08T01:01:35;18.70;99.90
14908;DHT22;7545;52.092;7.006;2023-09-08T01:04:01;18.70;99.90
14908;DHT22;7545;52.092;7.006;2023-09-08T01:06:27;18.60;99.90
14908;DHT22;7545;52.092;7.006;2023-09-08T01:08:54;18.60;99.90
14908;DHT22;7545;52.092;7.006;2023-09-08T01:11:21;18.60;99.90
14908;DHT22;7545;52.092;7.006;2023-09-08T01:13:47;18.50;99.90
14908;DHT22;7545;52.092;7.006;2023-09-08T01:16:13;18.50;99.90
14908;DHT22;7545;52.092;7.006;2023-09-08T01:18:39;18.50;99.90
14908;DHT22;7545;52.092;7.006;2023-09-08T01:21:19;18.50;99.90
14908;DHT22;7545;52.092;7.006;2023-09-08T01:26:31;18.40;99.90
14908;DHT22;7545;52.092;7.006;2023-09-08T01:29:02;18.40;99.90
14908;DHT22;7545;52.092;7.006;2023-09-08T01:31:30;18.40;99.90
14908;DHT22;7545;52.092;7.006;2023-09-08T01:33:56;18.40;99.90
14908;DHT22;7545;52.092;7.006;2023-09-08T01:36:22;18.40;99.90
14908;DHT22;7545;52.092;7.006;2023-09-08T01:38:47;18.40;99.90
14908;DHT22;7545;52.092;7.006;2023-09-08T01:41:13;18.30;99.90
14908;DHT22;7545;52.092;7.006;2023-09-08T01:43:38;18.30;99.90
14908;DHT22;7545;52.092;7.006;2023-09-08T01:46:04;18.30;99.90
14908;DHT22;7545;52.092;7.006;2023-09-08T01:48:30;18.20;99.90
14908;DHT22;7545;52.092;7.006;2023-09-08T01:50:55;18.20;99.90
14908;DHT22;7545;52.092;7.006;2023-09-08T01:53:21;18.20;99.90
14908;DHT22;7545;52.092;7.006;2023-09-08T01:55:46;18.20;99.90
14908;DHT22;7545;52.092;7.006;2023-09-08T01:58:12;18.20;99.90
14908;DHT22;7545;52.092;7.006;2023-09-08T02:00:37;18.20;99.90
14908;DHT22;7545;52.092;7.006;2023-09-08T02:03:03;18.20;99.90
14908;DHT22;7545;52.092;7.006;2023-09-08T02:05:29;18.20;99.90
14908;DHT22;7545;52.092;7.006;2023-09-08T02:07:54;18.10;99.90
14908;DHT22;7545;52.092;7.006;2023-09-08T02:10:22;18.10;99.90
14908;DHT22;7545;52.092;7.006;2023-09-08T02:12:47;18.10;99.90
14908;DHT22;7545;52.092;7.006;2023-09-08T02:15:13;18.10;99.90
14908;DHT22;7545;52.092;7.006;2023-09-08T02:17:38;18.00;99.90
14908;DHT22;7545;52.092;7.006;2023-09-08T02:20:04;18.00;99.90
14908;DHT22;7545;52.092;7.006;2023-09-08T02:22:30;18.00;99.90
14908;DHT22;7545;52.092;7.006;2023-09-08T02:24:56;18.00;99.90
14908;DHT22;7545;52.092;7.006;2023-09-08T02:27:23;17.90;99.90
14908;DHT22;7545;52.092;7.006;2023-09-08T02:29:49;17.90;99.90
14908;DHT22;7545;52.092;7.006;2023-09-08T02:32:14;17.90;99.90
14908;DHT22;7545;52.092;7.006;2023-09-08T02:34:40;17.90;99.90
14908;DHT22;7545;52.092;7.006;2023-09-08T02:37:07;17.80;99.90
14908;DHT22;7545;52.092;7.006;2023-09-08T02:39:33;17.80;99.90
14908;DHT22;7545;52.092;7.006;2023-09-08T02:41:59;17.80;99.90
14908;DHT22;7545;52.092;7.006;2023-09-08T02:44:24;17.90;99.90
14908;DHT22;7545;52.092;7.006;2023-09-08T02:46:52;17.80;99.90
14908;DHT22;7545;52.092;7.006;2023-09-08T02:49:17;17.80;99.90
14908;DHT22;7545;52.092;7.006;2023-09-08T02:51:43;17.80;99.90
14908;DHT22;7545;52.092;7.006;2023-09-08T02:54:08;17.80;99.90
14908;DHT22;7545;52.092;7.006;2023-09-08T02:56:34;17.80;99.90
14908;DHT22;7545;52.092;7.006;2023-09-08T02:58:59;17.70;99.90
14908;DHT22;7545;52.092;7.006;2023-09-08T03:01:25;17.70;99.90
14908;DHT22;7545;52.092;7.006;2023-09-08T03:03:51;17.60;99.90
14908;DHT22;7545;52.092;7.006;2023-09-08T03:06:19;17.60;99.90
14908;DHT22;7545;52.092;7.006;2023-09-08T03:08:48;17.60;99.90
14908;DHT22;7545;52.092;7.006;2023-09-08T03:11:13;17.60;99.90
14908;DHT22;7545;52.092;7.006;2023-09-08T03:13:39;17.50;99.90
14908;DHT22;7545;52.092;7.006;2023-09-08T03:16:06;17.50;99.90
14908;DHT22;7545;52.092;7.006;2023-09-08T03:18:33;17.60;99.90
14908;DHT22;7545;52.092;7.006;2023-09-08T03:21:00;17.50;99.90
14908;DHT22;7545;52.092;7.006;2023-09-08T03:23:37;17.60;99.90
14908;DHT22;7545;52.092;7.006;2023-09-08T03:26:03;17.50;99.90
14908;DHT22;7545;52.092;7.006;2023-09-08T03:28:28;17.50;99.90
14908;DHT22;7545;52.092;7.006;2023-09-08T03:30:54;17.50;99.90
14908;DHT22;7545;52.092;7.006;2023-09-08T03:33:20;17.50;99.90
14908;DHT22;7545;52.092;7.006;2023-09-08T03:35:45;17.50;99.90
14908;DHT22;7545;52.092;7.006;2023-09-08T03:38:11;17.40;99.90
14908;DHT22;7545;52.092;7.006;2023-09-08T03:40:36;17.50;99.90
14908;DHT22;7545;52.092;7.006;2023-09-08T03:43:03;17.40;99.90
14908;DHT22;7545;52.092;7.006;2023-09-08T03:45:29;17.40;99.90
14908;DHT22;7545;52.092;7.006;2023-09-08T03:47:54;17.40;99.90
14908;DHT22;7545;52.092;7.006;2023-09-08T03:50:20;17.40;99.90
14908;DHT22;7545;52.092;7.006;2023-09-08T03:52:46;17.40;99.90
14908;DHT22;7545;52.092;7.006;2023-09-08T03:55:11;17.40;99.90
14908;DHT22;7545;52.092;7.006;2023-09-08T03:57:37;17.40;99.90
14908;DHT22;7545;52.092;7.006;2023-09-08T04:00:03;17.40;99.90
14908;DHT22;7545;52.092;7.006;2023-09-08T04:02:30;17.40;99.90
14908;DHT22;7545;52.092;7.006;2023-09-08T04:04:56;17.40;99.90
14908;DHT22;7545;52.092;7.006;2023-09-08T04:07:21;17.40;99.90
14908;DHT22;7545;52.092;7.006;2023-09-08T04:09:47;17.40;99.90
14908;DHT22;7545;52.092;7.006;2023-09-08T04:12:12;17.30;99.90
14908;DHT22;7545;52.092;7.006;2023-09-08T04:14:38;17.30;99.90
14908;DHT22;7545;52.092;7.006;2023-09-08T04:17:04;17.30;99.90
14908;DHT22;7545;52.092;7.006;2023-09-08T04:19:29;17.30;99.90
14908;DHT22;7545;52.092;7.006;2023-09-08T04:21:55;17.30;99.90
14908;DHT22;7545;52.092;7.006;2023-09-08T04:24:20;17.30;99.90
14908;DHT22;7545;52.092;7.006;2023-09-08T04:26:46;17.20;99.90
14908;DHT22;7545;52.092;7.006;2023-09-08T04:29:11;17.20;99.90
14908;DHT22;7545;52.092;7.006;2023-09-08T04:31:37;17.20;99.90
14908;DHT22;7545;52.092;7.006;2023-09-08T04:34:02;17.20;99.90
14908;DHT22;7545;52.092;7.006;2023-09-08T04:36:28;17.20;99.90
14908;DHT22;7545;52.092;7.006;2023-09-08T04:38:55;17.20;99.90
14908;DHT22;7545;52.092;7.006;2023-09-08T04:41:21;17.20;99.90
14908;DHT22;7545;52.092;7.006;2023-09-08T04:43:47;17.10;99.90
14908;DHT22;7545;52.092;7.006;2023-09-08T04:46:12;17.10;99.90
14908;DHT22;7545;52.092;7.006;2023-09-08T04:48:38;17.10;99.90
14908;DHT22;7545;52.092;7.006;2023-09-08T04:51:03;17.10;99.90
14908;DHT22;7545;52.092;7.006;2023-09-08T04:53:29;17.10;99.90
14908;DHT22;7545;52.092;7.006;2023-09-08T04:55:54;17.10;99.90
14908;DHT22;7545;52.092;7.006;2023-09-08T04:58:20;17.10;99.90
14908;DHT22;7545;52.092;7.006;2023-09-08T05:00:46;17.10;99.90
14908;DHT22;7545;52.092;7.006;2023-09-08T05:03:11;17.10;99.90
14908;DHT22;7545;52.092;7.006;2023-09-08T05:05:37;17.00;99.90
14908;DHT22;7545;52.092;7.006;2023-09-08T05:08:04;17.00;99.90
14908;DHT22;7545;52.092;7.006;2023-09-08T05:10:29;17.00;99.90
14908;DHT22;7545;52.092;7.006;2023-09-08T05:12:55;17.00;99.90
14908;DHT22;7545;52.092;7.006;2023-09-08T05:15:21;17.00;99.90
14908;DHT22;7545;52.092;7.006;2023-09-08T05:17:47;17.00;99.90
14908;DHT22;7545;52.092;7.006;2023-09-08T05:20:12;17.00;99.90
14908;DHT22;7545;52.092;7.006;2023-09-08T05:22:38;16.90;99.90
14908;DHT22;7545;52.092;7.006;2023-09-08T05:25:04;16.90;99.90
14908;DHT22;7545;52.092;7.006;2023-09-08T05:27:30;16.90;99.90
14908;DHT22;7545;52.092;7.006;2023-09-08T05:29:56;16.90;99.90
14908;DHT22;7545;52.092;7.006;2023-09-08T05:32:22;17.00;99.90
14908;DHT22;7545;52.092;7.006;2023-09-08T05:34:47;16.90;99.90
14908;DHT22;7545;52.092;7.006;2023-09-08T05:37:13;16.90;99.90
14908;DHT22;7545;52.092;7.006;2023-09-08T05:39:38;17.00;99.90
14908;DHT22;7545;52.092;7.006;2023-09-08T05:42:04;17.00;99.90
14908;DHT22;7545;52.092;7.006;2023-09-08T05:44:30;17.00;99.90
14908;DHT22;7545;52.092;7.006;2023-09-08T05:46:56;17.00;99.90
14908;DHT22;7545;52.092;7.006;2023-09-08T05:49:21;17.00;99.90
14908;DHT22;7545;52.092;7.006;2023-09-08T05:51:47;17.00;99.90
14908;DHT22;7545;52.092;7.006;2023-09-08T05:54:12;17.10;99.90
14908;DHT22;7545;52.092;7.006;2023-09-08T05:56:38;17.10;99.90
14908;DHT22;7545;52.092;7.006;2023-09-08T05:59:04;17.10;99.90
14908;DHT22;7545;52.092;7.006;2023-09-08T06:01:32;17.10;99.90
14908;DHT22;7545;52.092;7.006;2023-09-08T06:03:58;17.10;99.90
14908;DHT22;7545;52.092;7.006;2023-09-08T06:06:24;17.20;99.90
14908;DHT22;7545;52.092;7.006;2023-09-08T06:08:50;17.20;99.90
14908;DHT22;7545;52.092;7.006;2023-09-08T06:11:16;17.20;99.90
14908;DHT22;7545;52.092;7.006;2023-09-08T06:13:42;17.20;99.90
14908;DHT22;7545;52.092;7.006;2023-09-08T06:16:08;17.30;99.90
14908;DHT22;7545;52.092;7.006;2023-09-08T06:18:33;17.30;99.90
14908;DHT22;7545;52.092;7.006;2023-09-08T06:21:08;17.30;99.90
14908;DHT22;7545;52.092;7.006;2023-09-08T06:23:34;17.40;99.90
14908;DHT22;7545;52.092;7.006;2023-09-08T06:26:00;17.50;99.90
14908;DHT22;7545;52.092;7.006;2023-09-08T06:28:29;17.50;99.90
14908;DHT22;7545;52.092;7.006;2023-09-08T06:30:55;17.50;99.90
14908;DHT22;7545;52.092;7.006;2023-09-08T06:33:21;17.50;99.90
14908;DHT22;7545;52.092;7.006;2023-09-08T06:35:47;17.60;99.90
14908;DHT22;7545;52.092;7.006;2023-09-08T06:38:13;17.60;99.90
14908;DHT22;7545;52.092;7.006;2023-09-08T06:40:39;17.60;99.90
14908;DHT22;7545;52.092;7.006;2023-09-08T06:43:05;17.70;99.90
14908;DHT22;7545;52.092;7.006;2023-09-08T06:45:31;17.70;99.90
14908;DHT22;7545;52.092;7.006;2023-09-08T06:47:56;17.80;99.90
14908;DHT22;7545;52.092;7.006;2023-09-08T06:50:23;17.80;99.90
14908;DHT22;7545;52.092;7.006;2023-09-08T06:52:51;17.90;99.90
14908;DHT22;7545;52.092;7.006;2023-09-08T06:55:18;17.90;99.90
14908;DHT22;7545;52.092;7.006;2023-09-08T06:57:45;18.00;99.90
14908;DHT22;7545;52.092;7.006;2023-09-08T07:00:11;18.00;99.90
14908;DHT22;7545;52.092;7.006;2023-09-08T07:02:41;18.10;99.90
14908;DHT22;7545;52.092;7.006;2023-09-08T07:05:06;18.10;99.90
14908;DHT22;7545;52.092;7.006;2023-09-08T07:07:36;18.20;99.90
14908;DHT22;7545;52.092;7.006;2023-09-08T07:10:05;18.30;99.90
14908;DHT22;7545;52.092;7.006;2023-09-08T07:12:31;18.30;99.90
14908;DHT22;7545;52.092;7.006;2023-09-08T07:14:57;18.40;99.90
14908;DHT22;7545;52.092;7.006;2023-09-08T07:17:25;18.50;99.90
14908;DHT22;7545;52.092;7.006;2023-09-08T07:19:50;18.60;99.90
14908;DHT22;7545;52.092;7.006;2023-09-08T07:22:16;18.70;99.90
14908;DHT22;7545;52.092;7.006;2023-09-08T07:24:42;18.80;99.90
14908;DHT22;7545;52.092;7.006;2023-09-08T07:27:08;18.90;99.90
14908;DHT22;7545;52.092;7.006;2023-09-08T07:29:33;19.00;99.90
14908;DHT22;7545;52.092;7.006;2023-09-08T07:31:59;19.10;99.90
14908;DHT22;7545;52.092;7.006;2023-09-08T07:34:25;19.20;99.90
14908;DHT22;7545;52.092;7.006;2023-09-08T07:36:50;19.20;99.90
14908;DHT22;7545;52.092;7.006;2023-09-08T07:39:16;19.30;99.90
14908;DHT22;7545;52.092;7.006;2023-09-08T07:41:42;19.40;99.90
14908;DHT22;7545;52.092;7.006;2023-09-08T07:44:07;19.40;99.90
14908;DHT22;7545;52.092;7.006;2023-09-08T07:46:33;19.50;99.90
14908;DHT22;7545;52.092;7.006;2023-09-08T07:48:59;19.60;99.90
14908;DHT22;7545;52.092;7.006;2023-09-08T07:51:25;19.70;99.90
14908;DHT22;7545;52.092;7.006;2023-09-08T07:53:52;19.70;99.90
14908;DHT22;7545;52.092;7.006;2023-09-08T07:56:18;19.80;99.90
14908;DHT22;7545;52.092;7.006;2023-09-08T07:58:44;19.90;99.90
14908;DHT22;7545;52.092;7.006;2023-09-08T08:01:09;19.90;99.90
14908;DHT22;7545;52.092;7.006;2023-09-08T08:03:35;20.00;99.90
14908;DHT22;7545;52.092;7.006;2023-09-08T08:06:01;20.10;99.90
14908;DHT22;7545;52.092;7.006;2023-09-08T08:08:27;20.10;99.90
14908;DHT22;7545;52.092;7.006;2023-09-08T08:10:52;20.20;99.90
14908;DHT22;7545;52.092;7.006;2023-09-08T08:13:18;20.30;99.90
14908;DHT22;7545;52.092;7.006;2023-09-08T08:15:44;20.30;99.90
14908;DHT22;7545;52.092;7.006;2023-09-08T08:18:13;20.40;99.90
14908;DHT22;7545;52.092;7.006;2023-09-08T08:20:38;20.50;99.90
14908;DHT22;7545;52.092;7.006;2023-09-08T08:23:05;20.50;99.90
14908;DHT22;7545;52.092;7.006;2023-09-08T08:25:31;20.70;99.90
14908;DHT22;7545;52.092;7.006;2023-09-08T08:27:58;20.70;99.90
14908;DHT22;7545;52.092;7.006;2023-09-08T08:30:25;20.80;99.90
14908;DHT22;7545;52.092;7.006;2023-09-08T08:32:51;20.80;99.90
14908;DHT22;7545;52.092;7.006;2023-09-08T08:35:21;20.90;99.90
14908;DHT22;7545;52.092;7.006;2023-09-08T08:37:47;21.00;99.90
14908;DHT22;7545;52.092;7.006;2023-09-08T08:40:12;21.10;99.90
14908;DHT22;7545;52.092;7.006;2023-09-08T08:42:39;21.20;99.90
14908;DHT22;7545;52.092;7.006;2023-09-08T08:45:05;21.30;99.90
14908;DHT22;7545;52.092;7.006;2023-09-08T08:47:31;21.30;99.90
14908;DHT22;7545;52.092;7.006;2023-09-08T08:49:58;21.40;99.90
14908;DHT22;7545;52.092;7.006;2023-09-08T08:52:26;21.50;99.90
14908;DHT22;7545;52.092;7.006;2023-09-08T08:54:51;21.60;99.90
14908;DHT22;7545;52.092;7.006;2023-09-08T08:57:17;21.60;99.90
14908;DHT22;7545;52.092;7.006;2023-09-08T08:59:43;21.70;99.90
14908;DHT22;7545;52.092;7.006;2023-09-08T09:02:11;21.80;99.90
14908;DHT22;7545;52.092;7.006;2023-09-08T09:04:37;21.80;99.90
14908;DHT22;7545;52.092;7.006;2023-09-08T09:07:05;21.90;99.90
14908;DHT22;7545;52.092;7.006;2023-09-08T09:09:31;21.90;99.90
14908;DHT22;7545;52.092;7.006;2023-09-08T09:11:57;22.00;99.90
14908;DHT22;7545;52.092;7.006;2023-09-08T09:14:23;22.10;99.90
14908;DHT22;7545;52.092;7.006;2023-09-08T09:16:48;22.20;99.90
14908;DHT22;7545;52.092;7.006;2023-09-08T09:19:20;22.30;99.90
14908;DHT22;7545;52.092;7.006;2023-09-08T09:21:51;22.30;99.90
14908;DHT22;7545;52.092;7.006;2023-09-08T09:24:37;22.40;99.90
14908;DHT22;7545;52.092;7.006;2023-09-08T09:27:04;22.50;99.90
14908;DHT22;7545;52.092;7.006;2023-09-08T09:29:32;22.60;99.90
14908;DHT22;7545;52.092;7.006;2023-09-08T09:32:03;22.70;99.90
14908;DHT22;7545;52.092;7.006;2023-09-08T09:34:29;22.70;99.90
14908;DHT22;7545;52.092;7.006;2023-09-08T09:36:55;22.80;99.90
14908;DHT22;7545;52.092;7.006;2023-09-08T09:39:22;22.90;99.90
14908;DHT22;7545;52.092;7.006;2023-09-08T09:41:56;23.00;99.90
14908;DHT22;7545;52.092;7.006;2023-09-08T09:44:23;23.00;99.90
14908;DHT22;7545;52.092;7.006;2023-09-08T09:46:51;23.20;99.90
14908;DHT22;7545;52.092;7.006;2023-09-08T09:49:18;23.20;99.90
14908;DHT22;7545;52.092;7.006;2023-09-08T09:51:48;23.40;99.90
14908;DHT22;7545;52.092;7.006;2023-09-08T09:54:15;23.40;99.90
14908;DHT22;7545;52.092;7.006;2023-09-08T09:56:41;23.50;99.90
14908;DHT22;7545;52.092;7.006;2023-09-08T09:59:11;23.70;99.90
14908;DHT22;7545;52.092;7.006;2023-09-08T10:01:38;23.70;99.90
14908;DHT22;7545;52.092;7.006;2023-09-08T10:04:05;23.90;99.90
14908;DHT22;7545;52.092;7.006;2023-09-08T10:06:32;23.90;99.90
14908;DHT22;7545;52.092;7.006;2023-09-08T10:09:00;24.10;99.90
14908;DHT22;7545;52.092;7.006;2023-09-08T10:11:29;24.10;99.90
14908;DHT22;7545;52.092;7.006;2023-09-08T10:13:58;24.30;99.90
14908;DHT22;7545;52.092;7.006;2023-09-08T10:16:27;24.40;99.90
14908;DHT22;7545;52.092;7.006;2023-09-08T10:18:58;24.50;99.90
14908;DHT22;7545;52.092;7.006;2023-09-08T10:21:26;24.60;99.90
14908;DHT22;7545;52.092;7.006;2023-09-08T10:24:21;24.70;99.90
14908;DHT22;7545;52.092;7.006;2023-09-08T10:29:25;25.10;99.90
14908;DHT22;7545;52.092;7.006;2023-09-08T10:31:52;25.20;99.90
14908;DHT22;7545;52.092;7.006;2023-09-08T10:34:18;25.30;99.90
14908;DHT22;7545;52.092;7.006;2023-09-08T10:36:44;25.50;99.90
14908;DHT22;7545;52.092;7.006;2023-09-08T10:44:40;25.80;99.90
14908;DHT22;7545;52.092;7.006;2023-09-08T10:47:05;25.90;99.90
14908;DHT22;7545;52.092;7.006;2023-09-08T10:49:35;26.00;99.90
14908;DHT22;7545;52.092;7.006;2023-09-08T10:52:11;26.00;99.90
14908;DHT22;7545;52.092;7.006;2023-09-08T10:54:45;26.20;99.90
14908;DHT22;7545;52.092;7.006;2023-09-08T10:57:17;26.30;99.90
14908;DHT22;7545;52.092;7.006;2023-09-08T10:59:56;26.30;99.90
14908;DHT22;7545;52.092;7.006;2023-09-08T11:02:42;26.40;99.90
14908;DHT22;7545;52.092;7.006;2023-09-08T11:05:14;26.50;99.90
14908;DHT22;7545;52.092;7.006;2023-09-08T11:07:41;26.60;99.90
14908;DHT22;7545;52.092;7.006;2023-09-08T11:10:08;26.70;99.90
14908;DHT22;7545;52.092;7.006;2023-09-08T11:12:34;26.70;99.90
14908;DHT22;7545;52.092;7.006;2023-09-08T11:15:03;26.80;99.90
14908;DHT22;7545;52.092;7.006;2023-09-08T11:17:34;26.90;99.90
14908;DHT22;7545;52.092;7.006;2023-09-08T11:20:01;26.90;99.90
14908;DHT22;7545;52.092;7.006;2023-09-08T11:22:31;27.00;99.90
14908;DHT22;7545;52.092;7.006;2023-09-08T11:24:57;27.10;99.90
14908;DHT22;7545;52.092;7.006;2023-09-08T11:27:23;27.20;99.90
14908;DHT22;7545;52.092;7.006;2023-09-08T11:29:49;27.20;99.90
14908;DHT22;7545;52.092;7.006;2023-09-08T11:32:15;27.30;99.90
14908;DHT22;7545;52.092;7.006;2023-09-08T11:34:41;27.40;99.90
14908;DHT22;7545;52.092;7.006;2023-09-08T11:37:11;27.50;99.90
14908;DHT22;7545;52.092;7.006;2023-09-08T11:39:42;27.60;99.90
14908;DHT22;7545;52.092;7.006;2023-09-08T11:42:09;27.70;99.90
14908;DHT22;7545;52.092;7.006;2023-09-08T11:44:36;27.70;99.90
14908;DHT22;7545;52.092;7.006;2023-09-08T11:47:03;27.80;99.90
14908;DHT22;7545;52.092;7.006;2023-09-08T11:49:35;27.90;99.90
14908;DHT22;7545;52.092;7.006;2023-09-08T11:52:02;27.90;99.90
14908;DHT22;7545;52.092;7.006;2023-09-08T11:54:32;28.00;99.90
14908;DHT22;7545;52.092;7.006;2023-09-08T11:57:00;28.10;99.90
14908;DHT22;7545;52.092;7.006;2023-09-08T11:59:27;28.10;99.90
14908;DHT22;7545;52.092;7.006;2023-09-08T12:01:54;28.20;99.90
14908;DHT22;7545;52.092;7.006;2023-09-08T12:04:20;28.20;99.90
14908;DHT22;7545;52.092;7.006;2023-09-08T12:06:51;28.30;99.90
14908;DHT22;7545;52.092;7.006;2023-09-08T12:09:16;28.30;99.90
14908;DHT22;7545;52.092;7.006;2023-09-08T12:11:43;28.40;99.90
14908;DHT22;7545;52.092;7.006;2023-09-08T12:14:10;28.50;99.90
14908;DHT22;7545;52.092;7.006;2023-09-08T12:16:36;28.50;99.90
14908;DHT22;7545;52.092;7.006;2023-09-08T12:19:02;28.50;99.90
14908;DHT22;7545;52.092;7.006;2023-09-08T12:21:28;28.60;99.90
14908;DHT22;7545;52.092;7.006;2023-09-08T12:23:54;28.60;99.90
14908;DHT22;7545;52.092;7.006;2023-09-08T12:26:20;28.70;99.90
14908;DHT22;7545;52.092;7.006;2023-09-08T12:28:47;28.70;99.90
14908;DHT22;7545;52.092;7.006;2023-09-08T12:31:14;28.70;99.90
14908;DHT22;7545;52.092;7.006;2023-09-08T12:33:42;28.70;99.90
14908;DHT22;7545;52.092;7.006;2023-09-08T12:36:16;28.80;99.90
14908;DHT22;7545;52.092;7.006;2023-09-08T12:38:47;28.80;99.90
14908;DHT22;7545;52.092;7.006;2023-09-08T12:41:13;28.80;99.90
14908;DHT22;7545;52.092;7.006;2023-09-08T12:43:39;28.90;99.90
14908;DHT22;7545;52.092;7.006;2023-09-08T12:46:04;28.90;99.90
14908;DHT22;7545;52.092;7.006;2023-09-08T12:48:30;29.00;99.90
14908;DHT22;7545;52.092;7.006;2023-09-08T12:50:55;29.10;99.90
14908;DHT22;7545;52.092;7.006;2023-09-08T12:53:21;29.10;99.90
14908;DHT22;7545;52.092;7.006;2023-09-08T12:55:48;29.10;99.90
14908;DHT22;7545;52.092;7.006;2023-09-08T12:58:14;29.20;99.90
14908;DHT22;7545;52.092;7.006;2023-09-08T13:00:40;29.20;99.90
14908;DHT22;7545;52.092;7.006;2023-09-08T13:03:06;29.20;99.90
14908;DHT22;7545;52.092;7.006;2023-09-08T13:05:31;29.20;99.90
14908;DHT22;7545;52.092;7.006;2023-09-08T13:07:57;29.30;99.90
14908;DHT22;7545;52.092;7.006;2023-09-08T13:10:23;29.30;99.90
14908;DHT22;7545;52.092;7.006;2023-09-08T13:12:49;29.30;99.90
14908;DHT22;7545;52.092;7.006;2023-09-08T13:15:15;29.30;99.90
14908;DHT22;7545;52.092;7.006;2023-09-08T13:17:40;29.30;99.90
14908;DHT22;7545;52.092;7.006;2023-09-08T13:20:07;29.30;99.90
14908;DHT22;7545;52.092;7.006;2023-09-08T13:22:33;29.40;99.90
14908;DHT22;7545;52.092;7.006;2023-09-08T13:24:58;29.30;99.90
14908;DHT22;7545;52.092;7.006;2023-09-08T13:27:24;29.30;99.90
14908;DHT22;7545;52.092;7.006;2023-09-08T13:29:50;29.40;99.90
14908;DHT22;7545;52.092;7.006;2023-09-08T13:32:15;29.40;99.90
14908;DHT22;7545;52.092;7.006;2023-09-08T13:34:41;29.30;99.90
14908;DHT22;7545;52.092;7.006;2023-09-08T13:37:09;29.40;99.90
14908;DHT22;7545;52.092;7.006;2023-09-08T13:39:34;29.40;99.90
14908;DHT22;7545;52.092;7.006;2023-09-08T13:42:01;29.30;99.90
14908;DHT22;7545;52.092;7.006;2023-09-08T13:44:27;29.30;99.90
14908;DHT22;7545;52.092;7.006;2023-09-08T13:46:53;29.30;99.90
14908;DHT22;7545;52.092;7.006;2023-09-08T13:49:20;29.30;99.90
14908;DHT22;7545;52.092;7.006;2023-09-08T13:51:45;29.30;99.90
14908;DHT22;7545;52.092;7.006;2023-09-08T13:54:12;29.30;99.90
14908;DHT22;7545;52.092;7.006;2023-09-08T13:56:41;29.30;99.90
14908;DHT22;7545;52.092;7.006;2023-09-08T13:59:08;29.20;99.90
14908;DHT22;7545;52.092;7.006;2023-09-08T14:01:35;29.20;99.90
14908;DHT22;7545;52.092;7.006;2023-09-08T14:04:02;29.20;99.90
14908;DHT22;7545;52.092;7.006;2023-09-08T14:06:28;29.10;99.90
14908;DHT22;7545;52.092;7.006;2023-09-08T14:08:54;29.10;99.90
14908;DHT22;7545;52.092;7.006;2023-09-08T14:11:21;29.10;99.90
14908;DHT22;7545;52.092;7.006;2023-09-08T14:13:47;29.20;99.90
14908;DHT22;7545;52.092;7.006;2023-09-08T14:16:13;29.20;99.90
14908;DHT22;7545;52.092;7.006;2023-09-08T14:18:39;29.10;99.90
14908;DHT22;7545;52.092;7.006;2023-09-08T14:21:05;29.10;99.90
14908;DHT22;7545;52.092;7.006;2023-09-08T14:23:31;29.10;99.90
14908;DHT22;7545;52.092;7.006;2023-09-08T14:25:57;29.10;99.90
14908;DHT22;7545;52.092;7.006;2023-09-08T14:28:22;29.00;99.90
14908;DHT22;7545;52.092;7.006;2023-09-08T14:30:49;29.00;99.90
14908;DHT22;7545;52.092;7.006;2023-09-08T14:33:16;29.00;99.90
14908;DHT22;7545;52.092;7.006;2023-09-08T14:35:42;29.00;99.90
14908;DHT22;7545;52.092;7.006;2023-09-08T14:38:09;29.00;99.90
14908;DHT22;7545;52.092;7.006;2023-09-08T14:40:34;29.00;99.90
14908;DHT22;7545;52.092;7.006;2023-09-08T14:43:00;29.00;99.90
14908;DHT22;7545;52.092;7.006;2023-09-08T14:45:25;29.00;99.90
14908;DHT22;7545;52.092;7.006;2023-09-08T14:47:53;29.00;99.90
14908;DHT22;7545;52.092;7.006;2023-09-08T14:50:19;29.00;99.90
14908;DHT22;7545;52.092;7.006;2023-09-08T14:52:44;29.00;99.90
14908;DHT22;7545;52.092;7.006;2023-09-08T14:55:10;29.00;99.90
14908;DHT22;7545;52.092;7.006;2023-09-08T14:57:36;29.00;99.90
14908;DHT22;7545;52.092;7.006;2023-09-08T15:00:03;28.90;99.90
14908;DHT22;7545;52.092;7.006;2023-09-08T15:02:30;28.90;99.90
14908;DHT22;7545;52.092;7.006;2023-09-08T15:04:56;28.90;99.90
14908;DHT22;7545;52.092;7.006;2023-09-08T15:07:21;28.90;99.90
14908;DHT22;7545;52.092;7.006;2023-09-08T15:09:47;28.90;99.90
14908;DHT22;7545;52.092;7.006;2023-09-08T15:12:13;28.90;99.90
14908;DHT22;7545;52.092;7.006;2023-09-08T15:14:38;28.90;99.90
14908;DHT22;7545;52.092;7.006;2023-09-08T15:17:05;28.80;99.90
14908;DHT22;7545;52.092;7.006;2023-09-08T15:19:31;28.90;99.90
14908;DHT22;7545;52.092;7.006;2023-09-08T15:21:58;28.80;99.90
14908;DHT22;7545;52.092;7.006;2023-09-08T15:24:24;28.80;99.90
14908;DHT22;7545;52.092;7.006;2023-09-08T15:26:49;28.80;99.90
14908;DHT22;7545;52.092;7.006;2023-09-08T15:29:15;28.80;99.90
14908;DHT22;7545;52.092;7.006;2023-09-08T15:31:41;28.80;99.90
14908;DHT22;7545;52.092;7.006;2023-09-08T15:34:07;28.80;99.90
14908;DHT22;7545;52.092;7.006;2023-09-08T15:36:33;28.70;99.90
14908;DHT22;7545;52.092;7.006;2023-09-08T15:38:59;28.70;99.90
14908;DHT22;7545;52.092;7.006;2023-09-08T15:41:24;28.70;99.90
14908;DHT22;7545;52.092;7.006;2023-09-08T15:43:51;28.60;99.90
14908;DHT22;7545;52.092;7.006;2023-09-08T15:46:17;28.60;99.90
14908;DHT22;7545;52.092;7.006;2023-09-08T15:48:43;28.60;99.90
14908;DHT22;7545;52.092;7.006;2023-09-08T15:51:09;28.60;99.90